sensor_id;sensor_type;location;lat;lon;timestamp;P1;durP1;ratioP1;P2;durP2;ratioP2
25581;SDS011;13462;50.764;4.332;2023-12-07T00:01:18;88.15;;;23.63;;
25581;SDS011;13462;50.764;4.332;2023-12-07T00:03:44;93.10;;;21.77;;
25581;SDS011;13462;50.764;4.332;2023-12-07T00:06:09;82.55;;;21.00;;
25581;SDS011;13462;50.764;4.332;2023-12-07T00:08:35;86.50;;;22.27;;
25581;SDS011;13462;50.764;4.332;2023-12-07T00:11:01;86.45;;;21.92;;
25581;SDS011;13462;50.764;4.332;2023-12-07T00:13:26;81.03;;;22.98;;
25581;SDS011;13462;50.764;4.332;2023-12-07T00:15:52;89.95;;;21.95;;
25581;SDS011;13462;50.764;4.332;2023-12-07T00:18:18;88.47;;;23.35;;
25581;SDS011;13462;50.764;4.332;2023-12-07T00:20:44;85.32;;;24.00;;
25581;SDS011;13462;50.764;4.332;2023-12-07T00:23:10;91.18;;;24.92;;
25581;SDS011;13462;50.764;4.332;2023-12-07T00:25:36;95.95;;;22.60;;
25581;SDS011;13462;50.764;4.332;2023-12-07T00:28:01;92.07;;;24.23;;
25581;SDS011;13462;50.764;4.332;2023-12-07T00:30:28;83.35;;;22.95;;
25581;SDS011;13462;50.764;4.332;2023-12-07T00:32:53;84.43;;;23.63;;
25581;SDS011;13462;50.764;4.332;2023-12-07T00:35:19;82.28;;;22.35;;
25581;SDS011;13462;50.764;4.332;2023-12-07T00:37:47;84.95;;;21.95;;
25581;SDS011;13462;50.764;4.332;2023-12-07T00:40:13;87.82;;;23.40;;
25581;SDS011;13462;50.764;4.332;2023-12-07T00:42:39;83.90;;;21.58;;
25581;SDS011;13462;50.764;4.332;2023-12-07T00:45:05;84.10;;;22.17;;
25581;SDS011;13462;50.764;4.332;2023-12-07T00:47:30;80.43;;;22.95;;
25581;SDS011;13462;50.764;4.332;2023-12-07T00:49:56;94.30;;;23.33;;
25581;SDS011;13462;50.764;4.332;2023-12-07T00:52:22;82.55;;;22.13;;
25581;SDS011;13462;50.764;4.332;2023-12-07T00:54:47;80.57;;;22.40;;
25581;SDS011;13462;50.764;4.332;2023-12-07T00:57:13;93.18;;;24.27;;
25581;SDS011;13462;50.764;4.332;2023-12-07T00:59:38;89.13;;;23.35;;
25581;SDS011;13462;50.764;4.332;2023-12-07T01:02:04;89.72;;;24.70;;
25581;SDS011;13462;50.764;4.332;2023-12-07T01:04:31;83.75;;;24.05;;
25581;SDS011;13462;50.764;4.332;2023-12-07T01:06:57;93.28;;;23.58;;
25581;SDS011;13462;50.764;4.332;2023-12-07T01:09:23;81.10;;;20.88;;
25581;SDS011;13462;50.764;4.332;2023-12-07T01:11:49;85.22;;;22.15;;
25581;SDS011;13462;50.764;4.332;2023-12-07T01:14:16;72.78;;;19.55;;
25581;SDS011;13462;50.764;4.332;2023-12-07T01:16:42;76.03;;;20.33;;
25581;SDS011;13462;50.764;4.332;2023-12-07T01:19:08;82.45;;;21.80;;
25581;SDS011;13462;50.764;4.332;2023-12-07T01:21:34;73.90;;;22.20;;
25581;SDS011;13462;50.764;4.332;2023-12-07T01:23:59;71.28;;;20.25;;
25581;SDS011;13462;50.764;4.332;2023-12-07T01:26:25;94.93;;;22.80;;
25581;SDS011;13462;50.764;4.332;2023-12-07T01:28:51;81.80;;;21.38;;
25581;SDS011;13462;50.764;4.332;2023-12-07T01:31:16;82.30;;;23.52;;
25581;SDS011;13462;50.764;4.332;2023-12-07T01:33:42;83.45;;;23.92;;
25581;SDS011;13462;50.764;4.332;2023-12-07T01:36:09;77.70;;;22.13;;
25581;SDS011;13462;50.764;4.332;2023-12-07T01:38:35;82.45;;;22.17;;
25581;SDS011;13462;50.764;4.332;2023-12-07T01:41:00;84.40;;;23.50;;
25581;SDS011;13462;50.764;4.332;2023-12-07T01:43:26;78.70;;;21.85;;
25581;SDS011;13462;50.764;4.332;2023-12-07T01:45:52;79.63;;;22.48;;
25581;SDS011;13462;50.764;4.332;2023-12-07T01:48:21;78.55;;;21.90;;
25581;SDS011;13462;50.764;4.332;2023-12-07T01:50:48;74.05;;;20.95;;
25581;SDS011;13462;50.764;4.332;2023-12-07T01:53:13;72.97;;;22.55;;
25581;SDS011;13462;50.764;4.332;2023-12-07T01:55:40;76.70;;;21.38;;
25581;SDS011;13462;50.764;4.332;2023-12-07T01:58:06;63.35;;;20.83;;
25581;SDS011;13462;50.764;4.332;2023-12-07T02:00:33;70.47;;;21.15;;
25581;SDS011;13462;50.764;4.332;2023-12-07T02:02:59;70.97;;;20.15;;
25581;SDS011;13462;50.764;4.332;2023-12-07T02:05:27;65.88;;;19.42;;
25581;SDS011;13462;50.764;4.332;2023-12-07T02:07:54;65.53;;;18.15;;
25581;SDS011;13462;50.764;4.332;2023-12-07T02:10:20;62.35;;;17.80;;
25581;SDS011;13462;50.764;4.332;2023-12-07T02:12:46;56.00;;;18.05;;
25581;SDS011;13462;50.764;4.332;2023-12-07T02:15:12;62.15;;;19.35;;
25581;SDS011;13462;50.764;4.332;2023-12-07T02:17:42;60.90;;;18.75;;
25581;SDS011;13462;50.764;4.332;2023-12-07T02:20:12;60.00;;;19.17;;
25581;SDS011;13462;50.764;4.332;2023-12-07T02:22:52;51.13;;;17.25;;
25581;SDS011;13462;50.764;4.332;2023-12-07T02:25:23;63.05;;;17.83;;
25581;SDS011;13462;50.764;4.332;2023-12-07T02:27:54;64.13;;;18.90;;
25581;SDS011;13462;50.764;4.332;2023-12-07T02:30:20;58.03;;;18.90;;
25581;SDS011;13462;50.764;4.332;2023-12-07T02:32:45;53.72;;;17.98;;
25581;SDS011;13462;50.764;4.332;2023-12-07T02:35:11;67.47;;;19.60;;
25581;SDS011;13462;50.764;4.332;2023-12-07T02:38:11;57.38;;;18.30;;
25581;SDS011;13462;50.764;4.332;2023-12-07T02:40:30;55.38;;;19.90;;
25581;SDS011;13462;50.764;4.332;2023-12-07T02:42:57;56.13;;;17.40;;
25581;SDS011;13462;50.764;4.332;2023-12-07T02:45:24;52.97;;;18.48;;
25581;SDS011;13462;50.764;4.332;2023-12-07T02:47:50;58.30;;;18.33;;
25581;SDS011;13462;50.764;4.332;2023-12-07T02:50:16;56.70;;;19.52;;
25581;SDS011;13462;50.764;4.332;2023-12-07T02:52:42;62.42;;;20.60;;
25581;SDS011;13462;50.764;4.332;2023-12-07T02:55:08;65.65;;;19.65;;
25581;SDS011;13462;50.764;4.332;2023-12-07T02:57:34;55.22;;;18.80;;
25581;SDS011;13462;50.764;4.332;2023-12-07T03:00:00;59.15;;;19.73;;
25581;SDS011;13462;50.764;4.332;2023-12-07T03:02:31;54.47;;;18.45;;
25581;SDS011;13462;50.764;4.332;2023-12-07T03:05:00;55.15;;;18.73;;
25581;SDS011;13462;50.764;4.332;2023-12-07T03:07:26;54.58;;;19.00;;
25581;SDS011;13462;50.764;4.332;2023-12-07T03:09:52;55.08;;;19.95;;
25581;SDS011;13462;50.764;4.332;2023-12-07T03:12:17;57.85;;;20.75;;
25581;SDS011;13462;50.764;4.332;2023-12-07T03:14:43;57.17;;;21.00;;
25581;SDS011;13462;50.764;4.332;2023-12-07T03:17:08;50.08;;;17.52;;
25581;SDS011;13462;50.764;4.332;2023-12-07T03:19:37;51.40;;;18.45;;
25581;SDS011;13462;50.764;4.332;2023-12-07T03:22:03;51.88;;;18.33;;
25581;SDS011;13462;50.764;4.332;2023-12-07T03:24:31;46.97;;;17.00;;
25581;SDS011;13462;50.764;4.332;2023-12-07T03:26:57;49.42;;;19.55;;
25581;SDS011;13462;50.764;4.332;2023-12-07T03:29:23;49.03;;;18.27;;
25581;SDS011;13462;50.764;4.332;2023-12-07T03:31:48;47.50;;;16.38;;
25581;SDS011;13462;50.764;4.332;2023-12-07T03:34:14;54.92;;;18.00;;
25581;SDS011;13462;50.764;4.332;2023-12-07T03:36:41;56.47;;;20.08;;
25581;SDS011;13462;50.764;4.332;2023-12-07T03:39:16;53.50;;;19.10;;
25581;SDS011;13462;50.764;4.332;2023-12-07T03:41:47;47.47;;;17.63;;
25581;SDS011;13462;50.764;4.332;2023-12-07T03:44:13;49.72;;;17.30;;
25581;SDS011;13462;50.764;4.332;2023-12-07T03:46:39;43.58;;;16.77;;
25581;SDS011;13462;50.764;4.332;2023-12-07T03:49:05;47.30;;;18.35;;
25581;SDS011;13462;50.764;4.332;2023-12-07T03:51:31;50.38;;;18.98;;
25581;SDS011;13462;50.764;4.332;2023-12-07T03:53:56;45.50;;;17.50;;
25581;SDS011;13462;50.764;4.332;2023-12-07T03:56:25;52.10;;;19.73;;
25581;SDS011;13462;50.764;4.332;2023-12-07T03:58:55;51.90;;;19.50;;
25581;SDS011;13462;50.764;4.332;2023-12-07T04:01:22;50.45;;;18.50;;
25581;SDS011;13462;50.764;4.332;2023-12-07T04:03:49;53.17;;;18.75;;
25581;SDS011;13462;50.764;4.332;2023-12-07T04:06:14;47.67;;;17.88;;
25581;SDS011;13462;50.764;4.332;2023-12-07T04:08:41;42.00;;;17.23;;
25581;SDS011;13462;50.764;4.332;2023-12-07T04:11:07;50.78;;;18.70;;
25581;SDS011;13462;50.764;4.332;2023-12-07T04:13:32;37.75;;;16.15;;
25581;SDS011;13462;50.764;4.332;2023-12-07T04:15:58;44.30;;;18.13;;
25581;SDS011;13462;50.764;4.332;2023-12-07T04:18:24;43.67;;;16.30;;
25581;SDS011;13462;50.764;4.332;2023-12-07T04:20:49;48.08;;;19.77;;
25581;SDS011;13462;50.764;4.332;2023-12-07T04:23:15;45.90;;;17.55;;
25581;SDS011;13462;50.764;4.332;2023-12-07T04:25:41;42.03;;;16.17;;
25581;SDS011;13462;50.764;4.332;2023-12-07T04:28:06;40.22;;;17.20;;
25581;SDS011;13462;50.764;4.332;2023-12-07T04:30:32;44.67;;;17.30;;
25581;SDS011;13462;50.764;4.332;2023-12-07T04:32:58;46.50;;;17.35;;
25581;SDS011;13462;50.764;4.332;2023-12-07T04:35:23;40.65;;;17.83;;
25581;SDS011;13462;50.764;4.332;2023-12-07T04:37:49;45.47;;;17.38;;
25581;SDS011;13462;50.764;4.332;2023-12-07T04:40:14;45.63;;;18.30;;
25581;SDS011;13462;50.764;4.332;2023-12-07T04:42:40;47.50;;;18.65;;
25581;SDS011;13462;50.764;4.332;2023-12-07T04:45:06;45.80;;;17.48;;
25581;SDS011;13462;50.764;4.332;2023-12-07T04:47:32;43.67;;;17.70;;
25581;SDS011;13462;50.764;4.332;2023-12-07T04:49:58;45.25;;;17.65;;
25581;SDS011;13462;50.764;4.332;2023-12-07T04:52:24;41.90;;;17.60;;
25581;SDS011;13462;50.764;4.332;2023-12-07T04:54:49;44.17;;;16.30;;
25581;SDS011;13462;50.764;4.332;2023-12-07T04:57:15;40.63;;;16.15;;
25581;SDS011;13462;50.764;4.332;2023-12-07T04:59:41;41.15;;;16.30;;
25581;SDS011;13462;50.764;4.332;2023-12-07T05:02:11;46.58;;;18.35;;
25581;SDS011;13462;50.764;4.332;2023-12-07T05:04:40;45.47;;;17.70;;
25581;SDS011;13462;50.764;4.332;2023-12-07T05:07:06;40.65;;;17.67;;
25581;SDS011;13462;50.764;4.332;2023-12-07T05:09:31;47.10;;;18.02;;
25581;SDS011;13462;50.764;4.332;2023-12-07T05:11:57;46.40;;;17.20;;
25581;SDS011;13462;50.764;4.332;2023-12-07T05:14:23;46.10;;;18.35;;
25581;SDS011;13462;50.764;4.332;2023-12-07T05:16:49;46.40;;;17.73;;
25581;SDS011;13462;50.764;4.332;2023-12-07T05:19:19;41.67;;;17.00;;
25581;SDS011;13462;50.764;4.332;2023-12-07T05:21:45;47.33;;;17.25;;
25581;SDS011;13462;50.764;4.332;2023-12-07T05:24:12;48.35;;;17.38;;
25581;SDS011;13462;50.764;4.332;2023-12-07T05:26:38;40.65;;;16.58;;
25581;SDS011;13462;50.764;4.332;2023-12-07T05:29:05;53.72;;;19.70;;
25581;SDS011;13462;50.764;4.332;2023-12-07T05:31:31;44.47;;;16.73;;
25581;SDS011;13462;50.764;4.332;2023-12-07T05:33:56;45.65;;;19.90;;
25581;SDS011;13462;50.764;4.332;2023-12-07T05:36:22;42.10;;;17.33;;
25581;SDS011;13462;50.764;4.332;2023-12-07T05:38:48;48.13;;;17.63;;
25581;SDS011;13462;50.764;4.332;2023-12-07T05:41:13;51.40;;;17.65;;
25581;SDS011;13462;50.764;4.332;2023-12-07T05:43:42;51.47;;;18.35;;
25581;SDS011;13462;50.764;4.332;2023-12-07T05:46:07;43.08;;;16.85;;
25581;SDS011;13462;50.764;4.332;2023-12-07T05:48:33;45.95;;;16.67;;
25581;SDS011;13462;50.764;4.332;2023-12-07T05:50:59;40.88;;;16.40;;
25581;SDS011;13462;50.764;4.332;2023-12-07T05:53:26;43.22;;;16.15;;
25581;SDS011;13462;50.764;4.332;2023-12-07T05:55:52;50.22;;;16.58;;
25581;SDS011;13462;50.764;4.332;2023-12-07T05:58:19;42.55;;;17.30;;
25581;SDS011;13462;50.764;4.332;2023-12-07T06:00:44;46.50;;;17.90;;
25581;SDS011;13462;50.764;4.332;2023-12-07T06:03:12;43.45;;;18.17;;
25581;SDS011;13462;50.764;4.332;2023-12-07T06:05:38;46.35;;;17.95;;
25581;SDS011;13462;50.764;4.332;2023-12-07T06:08:04;41.47;;;16.40;;
25581;SDS011;13462;50.764;4.332;2023-12-07T06:10:30;43.47;;;16.40;;
25581;SDS011;13462;50.764;4.332;2023-12-07T06:12:56;43.95;;;17.05;;
25581;SDS011;13462;50.764;4.332;2023-12-07T06:15:23;39.72;;;16.10;;
25581;SDS011;13462;50.764;4.332;2023-12-07T06:17:49;42.33;;;16.30;;
25581;SDS011;13462;50.764;4.332;2023-12-07T06:20:15;41.90;;;16.63;;
25581;SDS011;13462;50.764;4.332;2023-12-07T06:22:40;42.13;;;16.17;;
25581;SDS011;13462;50.764;4.332;2023-12-07T06:25:06;43.50;;;16.90;;
25581;SDS011;13462;50.764;4.332;2023-12-07T06:27:33;43.95;;;16.15;;
25581;SDS011;13462;50.764;4.332;2023-12-07T06:30:03;42.92;;;17.38;;
25581;SDS011;13462;50.764;4.332;2023-12-07T06:32:31;39.63;;;15.40;;
25581;SDS011;13462;50.764;4.332;2023-12-07T06:34:57;43.13;;;17.58;;
25581;SDS011;13462;50.764;4.332;2023-12-07T06:37:23;45.80;;;15.88;;
25581;SDS011;13462;50.764;4.332;2023-12-07T06:39:49;41.47;;;16.38;;
25581;SDS011;13462;50.764;4.332;2023-12-07T06:42:15;37.72;;;16.85;;
25581;SDS011;13462;50.764;4.332;2023-12-07T06:44:43;39.65;;;16.48;;
25581;SDS011;13462;50.764;4.332;2023-12-07T06:47:11;41.72;;;16.48;;
25581;SDS011;13462;50.764;4.332;2023-12-07T06:49:36;40.22;;;16.77;;
25581;SDS011;13462;50.764;4.332;2023-12-07T06:52:02;42.65;;;15.88;;
25581;SDS011;13462;50.764;4.332;2023-12-07T06:54:28;35.53;;;15.35;;
25581;SDS011;13462;50.764;4.332;2023-12-07T06:56:53;35.85;;;15.48;;
25581;SDS011;13462;50.764;4.332;2023-12-07T06:59:19;35.63;;;15.32;;
25581;SDS011;13462;50.764;4.332;2023-12-07T07:01:45;35.45;;;15.23;;
25581;SDS011;13462;50.764;4.332;2023-12-07T07:04:11;37.80;;;16.63;;
25581;SDS011;13462;50.764;4.332;2023-12-07T07:06:36;39.83;;;15.98;;
25581;SDS011;13462;50.764;4.332;2023-12-07T07:09:03;41.00;;;15.90;;
25581;SDS011;13462;50.764;4.332;2023-12-07T07:11:30;41.63;;;14.30;;
25581;SDS011;13462;50.764;4.332;2023-12-07T07:13:55;36.65;;;15.35;;
25581;SDS011;13462;50.764;4.332;2023-12-07T07:16:21;39.95;;;15.70;;
25581;SDS011;13462;50.764;4.332;2023-12-07T07:18:46;42.17;;;16.67;;
25581;SDS011;13462;50.764;4.332;2023-12-07T07:21:12;34.38;;;15.25;;
25581;SDS011;13462;50.764;4.332;2023-12-07T07:23:38;43.85;;;16.40;;
25581;SDS011;13462;50.764;4.332;2023-12-07T07:26:03;37.58;;;15.25;;
25581;SDS011;13462;50.764;4.332;2023-12-07T07:28:29;36.58;;;14.80;;
25581;SDS011;13462;50.764;4.332;2023-12-07T07:30:55;39.45;;;17.58;;
25581;SDS011;13462;50.764;4.332;2023-12-07T07:33:20;39.25;;;14.90;;
25581;SDS011;13462;50.764;4.332;2023-12-07T07:35:46;42.28;;;15.60;;
25581;SDS011;13462;50.764;4.332;2023-12-07T07:38:12;42.17;;;16.13;;
25581;SDS011;13462;50.764;4.332;2023-12-07T07:40:37;38.83;;;16.20;;
25581;SDS011;13462;50.764;4.332;2023-12-07T07:43:03;44.75;;;16.52;;
25581;SDS011;13462;50.764;4.332;2023-12-07T07:45:29;52.88;;;19.60;;
25581;SDS011;13462;50.764;4.332;2023-12-07T07:47:54;45.00;;;18.35;;
25581;SDS011;13462;50.764;4.332;2023-12-07T07:50:20;53.75;;;19.60;;
25581;SDS011;13462;50.764;4.332;2023-12-07T07:52:45;38.55;;;17.48;;
25581;SDS011;13462;50.764;4.332;2023-12-07T07:55:11;39.03;;;16.52;;
25581;SDS011;13462;50.764;4.332;2023-12-07T07:57:37;51.97;;;17.58;;
25581;SDS011;13462;50.764;4.332;2023-12-07T08:00:03;47.05;;;17.77;;
25581;SDS011;13462;50.764;4.332;2023-12-07T08:02:33;51.22;;;19.13;;
25581;SDS011;13462;50.764;4.332;2023-12-07T08:05:00;47.65;;;17.70;;
25581;SDS011;13462;50.764;4.332;2023-12-07T08:07:26;44.88;;;15.40;;
25581;SDS011;13462;50.764;4.332;2023-12-07T08:09:51;46.40;;;17.88;;
25581;SDS011;13462;50.764;4.332;2023-12-07T08:12:17;42.85;;;16.98;;
25581;SDS011;13462;50.764;4.332;2023-12-07T08:14:43;48.47;;;17.90;;
25581;SDS011;13462;50.764;4.332;2023-12-07T08:17:11;43.15;;;16.88;;
25581;SDS011;13462;50.764;4.332;2023-12-07T08:19:37;48.55;;;19.02;;
25581;SDS011;13462;50.764;4.332;2023-12-07T08:22:03;43.95;;;18.08;;
25581;SDS011;13462;50.764;4.332;2023-12-07T08:24:29;46.85;;;18.30;;
25581;SDS011;13462;50.764;4.332;2023-12-07T08:26:54;43.55;;;16.80;;
25581;SDS011;13462;50.764;4.332;2023-12-07T08:29:20;45.42;;;17.95;;
25581;SDS011;13462;50.764;4.332;2023-12-07T08:31:45;40.22;;;18.10;;
25581;SDS011;13462;50.764;4.332;2023-12-07T08:34:12;42.33;;;17.42;;
25581;SDS011;13462;50.764;4.332;2023-12-07T08:36:38;40.80;;;17.23;;
25581;SDS011;13462;50.764;4.332;2023-12-07T08:39:03;31.35;;;15.25;;
25581;SDS011;13462;50.764;4.332;2023-12-07T08:41:29;34.33;;;15.85;;
25581;SDS011;13462;50.764;4.332;2023-12-07T08:43:54;37.30;;;16.15;;
25581;SDS011;13462;50.764;4.332;2023-12-07T08:46:20;37.22;;;15.65;;
25581;SDS011;13462;50.764;4.332;2023-12-07T08:48:45;34.42;;;15.90;;
25581;SDS011;13462;50.764;4.332;2023-12-07T08:51:11;34.00;;;14.30;;
25581;SDS011;13462;50.764;4.332;2023-12-07T08:53:38;29.90;;;14.15;;
25581;SDS011;13462;50.764;4.332;2023-12-07T08:56:03;29.92;;;13.75;;
25581;SDS011;13462;50.764;4.332;2023-12-07T08:58:29;30.40;;;14.77;;
25581;SDS011;13462;50.764;4.332;2023-12-07T09:00:55;32.63;;;13.57;;
25581;SDS011;13462;50.764;4.332;2023-12-07T09:03:21;32.42;;;13.23;;
25581;SDS011;13462;50.764;4.332;2023-12-07T09:05:50;26.95;;;13.27;;
25581;SDS011;13462;50.764;4.332;2023-12-07T09:08:16;29.40;;;13.40;;
25581;SDS011;13462;50.764;4.332;2023-12-07T09:10:42;30.92;;;14.05;;
25581;SDS011;13462;50.764;4.332;2023-12-07T09:13:07;30.27;;;13.00;;
25581;SDS011;13462;50.764;4.332;2023-12-07T09:15:33;27.00;;;12.98;;
25581;SDS011;13462;50.764;4.332;2023-12-07T09:18:02;30.23;;;13.48;;
25581;SDS011;13462;50.764;4.332;2023-12-07T09:20:28;26.50;;;12.50;;
25581;SDS011;13462;50.764;4.332;2023-12-07T09:22:53;24.42;;;12.57;;
25581;SDS011;13462;50.764;4.332;2023-12-07T09:25:23;26.48;;;13.05;;
25581;SDS011;13462;50.764;4.332;2023-12-07T09:27:48;26.63;;;11.77;;
25581;SDS011;13462;50.764;4.332;2023-12-07T09:30:16;27.00;;;12.52;;
25581;SDS011;13462;50.764;4.332;2023-12-07T09:32:42;28.10;;;12.23;;
25581;SDS011;13462;50.764;4.332;2023-12-07T09:35:08;23.00;;;11.98;;
25581;SDS011;13462;50.764;4.332;2023-12-07T09:37:43;23.65;;;10.82;;
25581;SDS011;13462;50.764;4.332;2023-12-07T09:40:19;22.40;;;11.32;;
25581;SDS011;13462;50.764;4.332;2023-12-07T09:42:46;17.05;;;10.75;;
25581;SDS011;13462;50.764;4.332;2023-12-07T09:45:12;18.30;;;10.63;;
25581;SDS011;13462;50.764;4.332;2023-12-07T09:47:43;20.52;;;9.88;;
25581;SDS011;13462;50.764;4.332;2023-12-07T09:50:13;18.05;;;9.57;;
25581;SDS011;13462;50.764;4.332;2023-12-07T09:52:42;18.38;;;9.35;;
25581;SDS011;13462;50.764;4.332;2023-12-07T09:55:08;11.80;;;7.90;;
25581;SDS011;13462;50.764;4.332;2023-12-07T09:57:35;12.45;;;7.65;;
25581;SDS011;13462;50.764;4.332;2023-12-07T10:00:02;14.00;;;7.97;;
25581;SDS011;13462;50.764;4.332;2023-12-07T10:02:29;13.32;;;8.05;;
25581;SDS011;13462;50.764;4.332;2023-12-07T10:07:50;13.80;;;7.68;;
25581;SDS011;13462;50.764;4.332;2023-12-07T10:10:17;13.35;;;8.23;;
25581;SDS011;13462;50.764;4.332;2023-12-07T10:12:54;15.50;;;8.15;;
25581;SDS011;13462;50.764;4.332;2023-12-07T10:15:21;17.73;;;8.88;;
25581;SDS011;13462;50.764;4.332;2023-12-07T10:20:19;16.35;;;8.68;;
25581;SDS011;13462;50.764;4.332;2023-12-07T10:23:01;17.27;;;8.57;;
25581;SDS011;13462;50.764;4.332;2023-12-07T10:25:32;12.40;;;7.75;;
25581;SDS011;13462;50.764;4.332;2023-12-07T10:28:05;15.57;;;8.43;;
25581;SDS011;13462;50.764;4.332;2023-12-07T10:30:33;15.27;;;8.52;;
25581;SDS011;13462;50.764;4.332;2023-12-07T10:32:59;12.60;;;7.90;;
25581;SDS011;13462;50.764;4.332;2023-12-07T10:35:24;14.05;;;7.85;;
25581;SDS011;13462;50.764;4.332;2023-12-07T10:37:50;15.40;;;7.63;;
25581;SDS011;13462;50.764;4.332;2023-12-07T10:40:16;18.50;;;9.40;;
25581;SDS011;13462;50.764;4.332;2023-12-07T10:42:46;15.50;;;8.00;;
25581;SDS011;13462;50.764;4.332;2023-12-07T10:45:13;15.57;;;8.38;;
25581;SDS011;13462;50.764;4.332;2023-12-07T10:47:40;14.02;;;7.88;;
25581;SDS011;13462;50.764;4.332;2023-12-07T10:50:09;16.73;;;7.82;;
25581;SDS011;13462;50.764;4.332;2023-12-07T10:52:44;11.88;;;7.50;;
25581;SDS011;13462;50.764;4.332;2023-12-07T10:57:49;12.50;;;7.95;;
25581;SDS011;13462;50.764;4.332;2023-12-07T11:00:18;12.77;;;7.65;;
25581;SDS011;13462;50.764;4.332;2023-12-07T11:02:44;17.15;;;7.82;;
25581;SDS011;13462;50.764;4.332;2023-12-07T11:05:11;13.57;;;7.88;;
25581;SDS011;13462;50.764;4.332;2023-12-07T11:07:47;11.82;;;7.03;;
25581;SDS011;13462;50.764;4.332;2023-12-07T11:10:21;15.00;;;7.75;;
25581;SDS011;13462;50.764;4.332;2023-12-07T11:12:56;13.02;;;7.10;;
25581;SDS011;13462;50.764;4.332;2023-12-07T11:15:31;13.07;;;7.32;;
25581;SDS011;13462;50.764;4.332;2023-12-07T11:17:57;15.30;;;8.25;;
25581;SDS011;13462;50.764;4.332;2023-12-07T11:23:19;14.52;;;7.55;;
25581;SDS011;13462;50.764;4.332;2023-12-07T11:25:45;15.73;;;8.38;;
25581;SDS011;13462;50.764;4.332;2023-12-07T11:28:13;16.08;;;8.52;;
25581;SDS011;13462;50.764;4.332;2023-12-07T11:30:41;17.52;;;7.07;;
25581;SDS011;13462;50.764;4.332;2023-12-07T11:33:08;11.85;;;7.13;;
25581;SDS011;13462;50.764;4.332;2023-12-07T11:35:53;15.55;;;9.15;;
25581;SDS011;13462;50.764;4.332;2023-12-07T11:38:31;15.77;;;6.95;;
25581;SDS011;13462;50.764;4.332;2023-12-07T11:40:57;13.10;;;6.90;;
25581;SDS011;13462;50.764;4.332;2023-12-07T11:45:57;11.07;;;6.80;;
25581;SDS011;13462;50.764;4.332;2023-12-07T11:48:23;10.30;;;6.35;;
25581;SDS011;13462;50.764;4.332;2023-12-07T11:50:58;14.95;;;6.63;;
25581;SDS011;13462;50.764;4.332;2023-12-07T11:53:33;9.95;;;6.35;;
25581;SDS011;13462;50.764;4.332;2023-12-07T11:56:03;16.33;;;7.38;;
25581;SDS011;13462;50.764;4.332;2023-12-07T11:58:31;13.43;;;7.50;;
25581;SDS011;13462;50.764;4.332;2023-12-07T12:00:58;10.30;;;6.40;;
25581;SDS011;13462;50.764;4.332;2023-12-07T12:03:25;11.88;;;6.55;;
25581;SDS011;13462;50.764;4.332;2023-12-07T12:05:52;14.95;;;7.00;;
25581;SDS011;13462;50.764;4.332;2023-12-07T12:08:19;12.43;;;6.68;;
25581;SDS011;13462;50.764;4.332;2023-12-07T12:10:45;13.45;;;6.53;;
25581;SDS011;13462;50.764;4.332;2023-12-07T12:13:12;11.85;;;7.18;;
25581;SDS011;13462;50.764;4.332;2023-12-07T12:15:38;14.48;;;7.18;;
25581;SDS011;13462;50.764;4.332;2023-12-07T12:18:04;14.30;;;7.38;;
25581;SDS011;13462;50.764;4.332;2023-12-07T12:20:31;14.38;;;6.40;;
25581;SDS011;13462;50.764;4.332;2023-12-07T12:22:57;15.82;;;7.15;;
25581;SDS011;13462;50.764;4.332;2023-12-07T12:25:24;11.50;;;7.00;;
25581;SDS011;13462;50.764;4.332;2023-12-07T12:28:05;12.73;;;6.47;;
25581;SDS011;13462;50.764;4.332;2023-12-07T12:30:32;13.32;;;6.35;;
25581;SDS011;13462;50.764;4.332;2023-12-07T12:32:59;13.55;;;7.97;;
25581;SDS011;13462;50.764;4.332;2023-12-07T12:35:25;11.52;;;6.80;;
25581;SDS011;13462;50.764;4.332;2023-12-07T12:37:51;18.35;;;8.70;;
25581;SDS011;13462;50.764;4.332;2023-12-07T12:40:17;20.35;;;9.38;;
25581;SDS011;13462;50.764;4.332;2023-12-07T12:42:45;17.15;;;8.02;;
25581;SDS011;13462;50.764;4.332;2023-12-07T12:45:12;15.68;;;7.85;;
25581;SDS011;13462;50.764;4.332;2023-12-07T12:47:40;15.88;;;8.02;;
25581;SDS011;13462;50.764;4.332;2023-12-07T12:50:06;14.73;;;7.97;;
25581;SDS011;13462;50.764;4.332;2023-12-07T12:52:32;14.27;;;7.32;;
25581;SDS011;13462;50.764;4.332;2023-12-07T12:54:58;11.90;;;6.85;;
25581;SDS011;13462;50.764;4.332;2023-12-07T12:57:24;13.90;;;7.22;;
25581;SDS011;13462;50.764;4.332;2023-12-07T12:59:50;12.82;;;6.90;;
25581;SDS011;13462;50.764;4.332;2023-12-07T13:02:16;15.93;;;7.50;;
25581;SDS011;13462;50.764;4.332;2023-12-07T13:04:43;12.07;;;7.40;;
25581;SDS011;13462;50.764;4.332;2023-12-07T13:07:10;15.95;;;6.68;;
25581;SDS011;13462;50.764;4.332;2023-12-07T13:09:42;13.43;;;7.22;;
25581;SDS011;13462;50.764;4.332;2023-12-07T13:12:08;11.70;;;7.07;;
25581;SDS011;13462;50.764;4.332;2023-12-07T13:14:34;12.48;;;7.75;;
25581;SDS011;13462;50.764;4.332;2023-12-07T13:17:00;13.05;;;6.95;;
25581;SDS011;13462;50.764;4.332;2023-12-07T13:19:27;11.23;;;6.60;;
25581;SDS011;13462;50.764;4.332;2023-12-07T13:21:52;13.82;;;6.35;;
25581;SDS011;13462;50.764;4.332;2023-12-07T13:24:18;13.30;;;7.45;;
25581;SDS011;13462;50.764;4.332;2023-12-07T13:26:44;14.65;;;7.90;;
25581;SDS011;13462;50.764;4.332;2023-12-07T13:29:09;13.52;;;7.50;;
25581;SDS011;13462;50.764;4.332;2023-12-07T13:31:35;18.73;;;9.13;;
25581;SDS011;13462;50.764;4.332;2023-12-07T13:34:01;14.27;;;7.82;;
25581;SDS011;13462;50.764;4.332;2023-12-07T13:36:27;10.75;;;6.47;;
25581;SDS011;13462;50.764;4.332;2023-12-07T13:38:54;12.02;;;7.25;;
25581;SDS011;13462;50.764;4.332;2023-12-07T13:41:20;16.08;;;6.82;;
25581;SDS011;13462;50.764;4.332;2023-12-07T13:43:47;11.35;;;6.05;;
25581;SDS011;13462;50.764;4.332;2023-12-07T13:46:18;11.35;;;6.88;;
25581;SDS011;13462;50.764;4.332;2023-12-07T13:48:44;14.45;;;6.93;;
25581;SDS011;13462;50.764;4.332;2023-12-07T13:51:10;14.55;;;8.45;;
25581;SDS011;13462;50.764;4.332;2023-12-07T13:53:36;11.10;;;7.10;;
25581;SDS011;13462;50.764;4.332;2023-12-07T13:56:02;12.75;;;6.60;;
25581;SDS011;13462;50.764;4.332;2023-12-07T13:58:29;13.75;;;6.38;;
25581;SDS011;13462;50.764;4.332;2023-12-07T14:00:55;14.77;;;7.65;;
25581;SDS011;13462;50.764;4.332;2023-12-07T14:03:21;13.88;;;7.88;;
25581;SDS011;13462;50.764;4.332;2023-12-07T14:05:48;12.63;;;7.07;;
25581;SDS011;13462;50.764;4.332;2023-12-07T14:08:13;14.45;;;7.07;;
25581;SDS011;13462;50.764;4.332;2023-12-07T14:10:39;11.43;;;7.32;;
25581;SDS011;13462;50.764;4.332;2023-12-07T14:13:05;15.32;;;7.53;;
25581;SDS011;13462;50.764;4.332;2023-12-07T14:15:30;12.55;;;7.13;;
25581;SDS011;13462;50.764;4.332;2023-12-07T14:18:00;11.95;;;6.45;;
25581;SDS011;13462;50.764;4.332;2023-12-07T14:20:27;13.95;;;7.07;;
25581;SDS011;13462;50.764;4.332;2023-12-07T14:22:53;14.15;;;7.38;;
25581;SDS011;13462;50.764;4.332;2023-12-07T14:25:20;12.68;;;7.05;;
25581;SDS011;13462;50.764;4.332;2023-12-07T14:27:45;18.27;;;8.35;;
25581;SDS011;13462;50.764;4.332;2023-12-07T14:30:11;12.88;;;7.53;;
25581;SDS011;13462;50.764;4.332;2023-12-07T14:32:37;10.38;;;6.63;;
25581;SDS011;13462;50.764;4.332;2023-12-07T14:35:03;12.95;;;6.90;;
25581;SDS011;13462;50.764;4.332;2023-12-07T14:37:29;14.90;;;6.70;;